METAR Data
IDs: Format: Raw Decoded Include TAF

Data at: 0250 UTC 12 May 2021

KEYE 120153Z AUTO 36009KT 10SM CLR 10/M01 A3034 RMK AO2 SLP277 T01001011 $
KEYE 120053Z AUTO 35007KT 10SM CLR 11/M01 A3031 RMK AO2 SLP267 T01061011 $
KEYE 112353Z AUTO 36009KT 10SM CLR 12/M01 A3029 RMK AO2 SLP258 T01221011 10144 20122 53008 $
KEYE 112253Z AUTO 01010KT 10SM CLR 13/M01 A3027 RMK AO2 SLP251 T01281006 $
KEYE 112153Z AUTO 10SM CLR 13/00 A3027 RMK AO2 SLP251 T01330000 $
KEYE 112053Z AUTO 03008G17KT 010V070 10SM FEW060 13/M01 A3026 RMK AO2 SLP249 T01331006 56010 $
KEYE 111953Z AUTO 36008KT 10SM FEW060 14/00 A3027 RMK AO2 SLP250 T01390000
KEYE 111853Z AUTO 03009G18KT 350V050 10SM SCT060 14/M01 A3028 RMK AO2 SLP254 T01391006 $
KEYE 111753Z AUTO 01009G18KT 340V050 10SM CLR 13/M01 A3029 RMK AO2 SLP258 T01331006 10139 20067 58003 $
KEYE 111653Z AUTO 34008G17KT 10SM CLR 13/M01 A3031 RMK AO2 SLP263 T01331006 $
KEYE 111553Z AUTO 02009G15KT 10SM CLR 12/M01 A3030 RMK AO2 SLP261 T01221011 $
KEYE 111453Z AUTO 04010KT 10SM CLR 11/M01 A3030 RMK AO2 SLP262 T01061006 51016
KEYE 111353Z AUTO 04009KT 10SM FEW100 09/00 A3029 RMK AO2 SLP258 T00940000
KEYE 111253Z AUTO 04007KT 10SM OVC085 08/01 A3027 RMK AO2 SLP251 T00780006
KEYE 111153Z AUTO 05005KT 10SM OVC070 07/02 A3025 RMK AO2 RAE38 SLP246 P0000 60002 70002 T00670017 10100 20067 53019
KEYE 111053Z AUTO 04005KT 9SM -RA OVC048 07/02 A3023 RMK AO2 RAE0954B26 SLP238 P0002 T00670022
KEYE 110953Z AUTO 36004KT 10SM -RA OVC047 08/03 A3022 RMK AO2 RAB36 SLP233 P0000 T00780033
KEYE 110853Z AUTO 01007KT 10SM BKN047 OVC055 08/04 A3020 RMK AO2 SLP226 60000 T00830039 53009
KEYE 110753Z AUTO 01006KT 10SM FEW042 BKN050 OVC065 09/06 A3018 RMK AO2 SLP219 T00890061
KEYE 110703Z AUTO 35007KT 10SM FEW011 SCT016 OVC040 09/07 A3017 RMK AO2 T00940072
KEYE 110653Z AUTO 35007KT 10SM SCT011 BKN016 OVC040 09/08 A3018 RMK AO2 RAB39E50 SLP219 P0000 T00940078
KEYE 110635Z AUTO 36006KT 10SM BKN011 OVC055 10/08 A3018 RMK AO2 T01000078
KEYE 110553Z AUTO 34005KT 10SM FEW047 SCT055 BKN085 09/07 A3017 RMK AO2 SLP217 60000 T00940067 10150 20094 53003
KEYE 110453Z AUTO 01007KT 10SM BKN055 BKN075 OVC090 10/07 A3016 RMK AO2 RAE00 SLP214 P0000 T01000067 401670011
KEYE 110353Z AUTO 36006KT 10SM -RA OVC060 11/07 A3016 RMK AO2 RAB40 SLP214 P0000 T01110072
KEYE 110253Z AUTO 02003KT 10SM OVC070 12/06 A3016 RMK AO2 SLP213 T01170061 53019
KEYE 110153Z AUTO 35009KT 10SM BKN065 BKN080 OVC100 12/06 A3013 RMK AO2 SLP205 T01220061
KEYE 110053Z AUTO 23003KT 10SM FEW060 OVC085 14/03 A3010 RMK AO2 SLP195 T01390028
KEYE 102353Z AUTO 00000KT 10SM FEW065 FEW095 15/02 A3010 RMK AO2 SLP195 T01500022 10167 20139 55003
KEYE 102253Z AUTO 00000KT 10SM OVC065 16/02 A3010 RMK AO2 SLP194 T01560022
KEYE 102153Z AUTO 34003KT 10SM CLR 16/02 A3010 RMK AO2 SLP194 T01610017
KEYE 102053Z AUTO 29007KT 10SM SCT055 SCT070 16/03 A3011 RMK AO2 SLP199 T01560033 56009
KEYE 101953Z AUTO 29005KT 10SM CLR 16/03 A3012 RMK AO2 SLP201 T01610028
KEYE 101853Z AUTO VRB04KT 10SM FEW049 16/03 A3013 RMK AO2 SLP204 T01560033
KEYE 101753Z AUTO 34007KT 270V360 10SM SCT043 14/03 A3014 RMK AO2 SLP209 T01390033 10150 20056 51004
KEYE 101653Z AUTO 30009KT 10SM FEW040 14/04 A3014 RMK AO2 SLP207 T01440044
KEYE 101553Z AUTO VRB04KT 10SM CLR 13/04 A3014 RMK AO2 SLP209 T01330039
KEYE 101453Z AUTO 00000KT 10SM CLR 11/04 A3013 RMK AO2 SLP205 T01110044 50006